Time;durP1;ratioP1;P1;durP2;ratioP2;P2;SDS_P1;SDS_P2;PMS_P1;PMS_P2;Temp;Humidity;BMP_temperature;BMP_pressure;BME280_temperature;BME280_humidity;BME280_pressure;Samples;Min_cycle;Max_cycle;Signal;HPM_P1;HPM_P2
2022/06/26 00:02:11;;;;;;;15.97;8.43;;;;;;;22.02;100.00;99302.31;5069029;28;20259;-66
2022/06/26 00:04:38;;;;;;;12.80;7.90;;;;;;;22.04;100.00;99303.97;5070636;28;20214;-66
2022/06/26 00:07:05;;;;;;;9.83;7.90;;;;;;;22.01;100.00;99304.06;5078315;28;20211;-66
2022/06/26 00:09:32;;;;;;;14.50;8.23;;;;;;;22.00;100.00;99314.59;5075313;28;20206;-66
2022/06/26 00:11:59;;;;;;;16.13;8.10;;;;;;;22.00;100.00;99315.44;5069244;28;20256;-66
2022/06/26 00:14:26;;;;;;;12.77;7.70;;;;;;;21.74;100.00;99284.00;5069755;28;20570;-67
2022/06/26 00:16:53;;;;;;;11.80;7.97;;;;;;;21.94;100.00;99327.88;5071935;28;20329;-66
2022/06/26 00:19:21;;;;;;;11.93;8.20;;;;;;;21.99;100.00;99328.56;5072970;28;20923;-66
2022/06/26 00:21:50;;;;;;;11.37;7.33;;;;;;;22.02;99.85;99326.72;5073025;28;20192;-66
2022/06/26 00:24:17;;;;;;;8.50;7.70;;;;;;;22.05;99.66;99328.38;5073027;28;20198;-67
2022/06/26 00:26:44;;;;;;;11.87;8.77;;;;;;;22.09;100.00;99329.97;5073186;28;20188;-66
2022/06/26 00:29:11;;;;;;;10.70;8.40;;;;;;;22.11;100.00;99334.25;5073388;28;20199;-66
2022/06/26 00:31:38;;;;;;;11.63;7.10;;;;;;;22.00;99.37;99333.75;5073053;28;20199;-66
2022/06/26 00:34:04;;;;;;;13.07;7.50;;;;;;;22.02;100.00;99342.41;5073170;28;20195;-66
2022/06/26 00:36:33;;;;;;;10.70;7.07;;;;;;;21.93;99.63;99339.22;5073148;28;20538;-66
2022/06/26 00:38:59;;;;;;;12.57;7.23;;;;;;;21.90;99.01;99344.56;5073021;28;20198;-67
2022/06/26 00:41:26;;;;;;;11.13;7.20;;;;;;;21.92;99.66;99346.22;5072587;28;20445;-67
2022/06/26 00:43:53;;;;;;;9.17;6.03;;;;;;;21.92;98.54;99348.00;5072826;28;20231;-67
2022/06/26 00:46:24;;;;;;;10.27;6.43;;;;;;;21.91;97.77;99338.44;5072963;28;20196;-67
2022/06/26 00:48:51;;;;;;;14.83;6.37;;;;;;;21.89;98.03;99341.13;5069594;28;20286;-68
2022/06/26 00:51:18;;;;;;;8.07;7.03;;;;;;;21.87;98.07;99336.81;5052444;28;20659;-68
2022/06/26 00:53:46;;;;;;;10.53;6.43;;;;;;;21.87;98.37;99328.97;5056059;28;20631;-67
2022/06/26 00:56:13;;;;;;;11.63;7.40;;;;;;;21.78;98.72;99324.88;5067963;28;20442;-67
2022/06/26 00:58:40;;;;;;;13.33;7.13;;;;;;;21.87;99.86;99332.44;5058186;28;20196;-67
2022/06/26 01:01:07;;;;;;;9.50;7.50;;;;;;;21.91;100.00;99333.19;5072560;28;20226;-67
2022/06/26 01:03:34;;;;;;;14.07;7.87;;;;;;;21.91;100.00;99339.28;5071734;28;20195;-67
2022/06/26 01:06:01;;;;;;;11.57;7.13;;;;;;;21.96;100.00;99341.75;5066238;28;20654;-67
2022/06/26 01:08:28;;;;;;;12.68;7.70;;;;;;;22.01;100.00;99332.84;5061435;28;20444;-67
2022/06/26 01:10:56;;;;;;;11.20;7.03;;;;;;;22.05;100.00;99341.47;5071317;28;20551;-67
2022/06/26 01:13:23;;;;;;;10.67;7.63;;;;;;;22.09;99.87;99345.69;5071395;28;20215;-67
2022/06/26 01:15:51;;;;;;;7.67;6.93;;;;;;;22.12;99.55;99342.97;5071195;28;20654;-67
2022/06/26 01:18:18;;;;;;;13.13;8.00;;;;;;;22.15;100.00;99350.72;5071553;28;20264;-67
2022/06/26 01:20:53;;;;;;;9.87;7.67;;;;;;;22.16;100.00;99340.22;5072066;28;20215;-67
2022/06/26 01:23:22;;;;;;;11.37;7.23;;;;;;;22.08;100.00;99344.84;5065220;28;20200;-67
2022/06/26 01:25:50;;;;;;;11.87;7.27;;;;;;;21.76;100.00;99300.50;5065356;28;20232;-67
2022/06/26 01:28:17;;;;;;;15.23;7.63;;;;;;;22.06;100.00;99357.09;5071893;28;20187;-68
2022/06/26 01:30:44;;;;;;;12.15;8.30;;;;;;;22.06;100.00;99358.84;5071695;28;20448;-68
2022/06/26 01:33:11;;;;;;;11.80;7.07;;;;;;;22.08;100.00;99363.16;5071688;28;20184;-67
2022/06/26 01:35:39;;;;;;;9.97;7.50;;;;;;;22.09;99.86;99370.09;5071673;28;20647;-67
2022/06/26 01:38:13;;;;;;;12.70;7.27;;;;;;;22.08;99.17;99367.53;5071620;28;20689;-67
2022/06/26 01:40:43;;;;;;;15.50;7.78;;;;;;;22.09;99.06;99372.72;5071276;28;20452;-67
2022/06/26 01:43:11;;;;;;;13.13;7.60;;;;;;;22.14;99.15;99378.63;5071922;28;20206;-67
2022/06/26 01:45:45;;;;;;;12.17;7.70;;;;;;;22.15;98.87;99377.75;5071234;28;20199;-67
2022/06/26 01:48:13;;;;;;;14.20;9.70;;;;;;;22.11;99.08;99378.75;5068998;28;20216;-67
2022/06/26 01:50:40;;;;;;;16.17;8.77;;;;;;;22.11;98.66;99381.34;5071818;28;20209;-67
2022/06/26 01:53:08;;;;;;;12.73;9.00;;;;;;;22.09;98.52;99375.31;5071536;28;20204;-68
2022/06/26 01:55:35;;;;;;;14.07;9.20;;;;;;;22.13;99.32;99379.56;5071292;28;20195;-67
2022/06/26 01:58:04;;;;;;;13.63;9.47;;;;;;;22.08;99.79;99378.88;5059727;28;20521;-67
2022/06/26 02:00:32;;;;;;;12.77;9.43;;;;;;;22.09;100.00;99390.16;5066725;28;20223;-67
2022/06/26 02:02:59;;;;;;;11.35;10.25;;;;;;;22.15;100.00;99388.22;5061016;28;20456;-68
2022/06/26 02:05:26;;;;;;;12.43;11.13;;;;;;;22.22;100.00;99391.50;5070915;28;20573;-67
2022/06/26 02:07:53;;;;;;;12.37;9.40;;;;;;;22.19;100.00;99389.84;5071391;28;20213;-68
2022/06/26 02:15:54;;;;;;;11.85;10.75;;;;;;;22.30;100.00;99389.50;5054939;28;20414;-67
2022/06/26 02:18:21;;;;;;;11.90;10.83;;;;;;;22.32;99.17;99383.28;5050717;28;20199;-67
2022/06/26 02:20:49;;;;;;;12.50;10.73;;;;;;;22.24;98.56;99393.16;5050653;28;20227;-66
2022/06/26 02:23:16;;;;;;;11.50;10.40;;;;;;;22.01;99.22;99377.34;5050873;28;20196;-67
2022/06/26 02:25:43;;;;;;;13.23;11.67;;;;;;;22.09;100.00;99390.16;5050014;28;20201;-67
2022/06/26 02:28:11;;;;;;;12.00;10.90;;;;;;;21.99;100.00;99376.53;5050945;28;20621;-67
2022/06/26 02:30:38;;;;;;;12.10;10.90;;;;;;;22.04;100.00;99399.94;5061576;28;20204;-67
2022/06/26 02:33:06;;;;;;;10.77;9.80;;;;;;;21.97;100.00;99395.81;5059481;28;20191;-67
2022/06/26 02:35:33;;;;;;;11.40;10.03;;;;;;;21.99;100.00;99407.94;5054865;28;20196;-67
2022/06/26 02:38:00;;;;;;;11.10;10.20;;;;;;;21.97;100.00;99391.44;5070950;28;20195;-67
2022/06/26 02:40:28;;;;;;;10.63;9.63;;;;;;;21.96;100.00;99401.94;5070393;28;20211;-66
2022/06/26 02:42:55;;;;;;;10.43;9.43;;;;;;;21.89;98.89;99393.44;5070617;28;20526;-67
2022/06/26 02:45:24;;;;;;;10.50;9.30;;;;;;;21.92;98.00;99402.94;5070431;28;20433;-65
2022/06/26 02:47:51;;;;;;;10.83;9.73;;;;;;;21.88;99.11;99394.31;5070747;28;20195;-66
2022/06/26 02:50:18;;;;;;;10.47;9.47;;;;;;;21.88;99.81;99390.84;5070822;28;20195;-66
2022/06/26 02:52:46;;;;;;;10.23;9.17;;;;;;;21.84;100.00;99373.53;5070500;28;20188;-66
2022/06/26 02:55:13;;;;;;;10.47;9.57;;;;;;;21.81;100.00;99377.06;5070283;28;20191;-66
2022/06/26 02:57:40;;;;;;;11.63;10.48;;;;;;;21.78;100.00;99375.41;5069862;28;20923;-66
2022/06/26 03:00:10;;;;;;;10.87;8.57;;;;;;;21.74;100.00;99372.94;5070333;28;20659;-67
2022/06/26 03:02:39;;;;;;;13.30;8.50;;;;;;;21.67;100.00;99376.66;5070534;28;20196;-66
2022/06/26 03:05:06;;;;;;;9.87;8.40;;;;;;;21.68;100.00;99375.72;5070199;28;20184;-66
2022/06/26 03:07:33;;;;;;;11.30;9.17;;;;;;;21.69;100.00;99380.94;5070068;28;20187;-67
2022/06/26 03:10:00;;;;;;;12.93;8.23;;;;;;;21.66;100.00;99370.56;5070438;28;20206;-66
2022/06/26 03:12:27;;;;;;;12.95;9.65;;;;;;;21.74;100.00;99383.41;5069573;28;20437;-67
2022/06/26 03:14:54;;;;;;;10.67;8.20;;;;;;;21.71;100.00;99389.56;5069943;28;20199;-66
2022/06/26 03:17:21;;;;;;;12.87;9.00;;;;;;;21.72;100.00;99383.47;5070068;28;20548;-66
2022/06/26 03:19:49;;;;;;;13.60;9.03;;;;;;;21.73;100.00;99385.16;5070034;28;20203;-67
2022/06/26 03:22:16;;;;;;;14.45;9.73;;;;;;;21.81;100.00;99379.66;5069075;28;20456;-67
2022/06/26 03:24:43;;;;;;;12.30;8.83;;;;;;;21.81;100.00;99389.31;5070321;28;20196;-67
2022/06/26 03:27:10;;;;;;;13.57;8.27;;;;;;;21.77;100.00;99386.78;5069978;28;20187;-67
2022/06/26 03:29:37;;;;;;;10.23;8.37;;;;;;;21.76;100.00;99385.06;5070110;28;20191;-66
2022/06/26 03:32:05;;;;;;;9.50;8.60;;;;;;;21.74;100.00;99393.84;5067723;28;20211;-67
2022/06/26 03:34:31;;;;;;;11.93;8.33;;;;;;;21.77;100.00;99388.53;5070125;28;20195;-67
2022/06/26 03:37:00;;;;;;;8.13;7.30;;;;;;;21.75;100.00;99388.56;5070153;28;20191;-67
2022/06/26 03:39:26;;;;;;;11.03;7.97;;;;;;;21.77;100.00;99388.53;5069951;28;20574;-67
2022/06/26 03:42:01;;;;;;;14.00;8.27;;;;;;;21.80;100.00;99392.81;5069662;28;20215;-67
2022/06/26 03:44:28;;;;;;;12.07;8.40;;;;;;;21.84;100.00;99399.69;5069594;28;20231;-66
2022/06/26 03:46:55;;;;;;;15.82;9.30;;;;;;;21.77;100.00;99363.25;5068972;28;20442;-66
2022/06/26 03:49:22;;;;;;;10.70;8.07;;;;;;;21.98;99.48;99390.50;5069653;28;20187;-66
2022/06/26 03:51:49;;;;;;;11.43;8.30;;;;;;;21.98;99.82;99384.41;5072320;28;20188;-66
2022/06/26 03:54:19;;;;;;;12.93;8.17;;;;;;;21.95;100.00;99387.16;5073972;28;20187;-66
2022/06/26 03:56:46;;;;;;;11.95;8.32;;;;;;;22.00;99.65;99383.47;5072604;28;20979;-66
2022/06/26 03:59:13;;;;;;;11.73;7.73;;;;;;;22.03;99.34;99385.97;5073758;28;20195;-66
2022/06/26 04:01:40;;;;;;;8.33;7.53;;;;;;;21.99;99.23;99391.38;5073414;28;20211;-66
2022/06/26 04:04:07;;;;;;;10.50;7.73;;;;;;;21.94;99.35;99395.91;5073910;28;20188;-66
2022/06/26 04:06:34;;;;;;;10.40;8.00;;;;;;;21.90;99.06;99400.34;5073555;28;20195;-66
2022/06/26 04:09:01;;;;;;;14.37;8.90;;;;;;;21.91;99.63;99407.31;5073133;28;20202;-66
2022/06/26 04:11:29;;;;;;;11.27;9.03;;;;;;;21.86;99.97;99408.31;5073578;28;20681;-66
2022/06/26 04:13:56;;;;;;;16.73;9.70;;;;;;;21.83;100.00;99405.81;5073652;28;20199;-66
2022/06/26 04:16:23;;;;;;;12.87;9.17;;;;;;;21.81;100.00;99405.00;5073283;28;20206;-66
2022/06/26 04:18:50;;;;;;;14.10;10.07;;;;;;;21.79;100.00;99407.66;5073374;28;20574;-66
2022/06/26 04:21:17;;;;;;;12.27;8.53;;;;;;;21.80;100.00;99401.53;5072521;28;20219;-67
2022/06/26 04:23:44;;;;;;;10.77;8.97;;;;;;;21.75;100.00;99399.03;5073009;28;20207;-66
2022/06/26 04:26:11;;;;;;;15.73;9.67;;;;;;;21.71;100.00;99396.56;5071036;28;20204;-67
2022/06/26 04:28:39;;;;;;;14.03;9.80;;;;;;;21.76;100.00;99403.38;5067087;28;20464;-67
2022/06/26 04:31:06;;;;;;;14.70;9.83;;;;;;;21.76;100.00;99398.13;5072630;28;20646;-67
2022/06/26 04:33:33;;;;;;;13.03;9.87;;;;;;;21.79;100.00;99397.19;5072848;28;20188;-67
2022/06/26 04:35:59;;;;;;;15.93;10.27;;;;;;;21.78;100.00;99400.72;5073042;28;20693;-67
2022/06/26 04:38:26;;;;;;;15.00;11.60;;;;;;;21.81;100.00;99399.78;5067900;28;20547;-67
2022/06/26 04:40:53;;;;;;;12.13;10.70;;;;;;;21.86;100.00;99396.09;5066197;28;20402;-67
2022/06/26 04:43:20;;;;;;;12.57;11.20;;;;;;;21.92;100.00;99388.06;5072305;28;20216;-67
2022/06/26 04:45:48;;;;;;;15.40;10.33;;;;;;;21.98;100.00;99392.25;5071673;28;20180;-67
2022/06/26 04:48:15;;;;;;;15.10;11.17;;;;;;;22.00;100.00;99388.69;5071288;28;20203;-67
2022/06/26 04:50:42;;;;;;;14.23;11.75;;;;;;;22.03;99.74;99388.59;5068749;28;20434;-67
2022/06/26 04:53:09;;;;;;;13.03;10.87;;;;;;;22.12;99.70;99398.78;5071212;28;20187;-66
2022/06/26 04:55:36;;;;;;;16.07;11.73;;;;;;;22.16;99.45;99405.66;5071602;28;20192;-67
2022/06/26 04:58:03;;;;;;;12.57;11.17;;;;;;;22.22;99.09;99407.22;5066251;28;20578;-67
2022/06/26 05:00:30;;;;;;;16.23;12.05;;;;;;;22.29;100.00;99412.19;5070735;28;20425;-67
2022/06/26 05:02:58;;;;;;;16.00;11.50;;;;;;;22.36;99.11;99415.44;5070817;28;21548;-66
2022/06/26 05:05:25;;;;;;;14.50;12.03;;;;;;;22.37;99.30;99409.31;5069009;28;20605;-67
2022/06/26 05:07:52;;;;;;;18.50;12.97;;;;;;;22.37;99.77;99421.53;5070170;28;20195;-67
2022/06/26 05:10:19;;;;;;;14.57;12.93;;;;;;;22.27;100.00;99408.78;5070891;28;20183;-67
2022/06/26 05:12:47;;;;;;;16.70;14.87;;;;;;;22.41;100.00;99405.69;5070826;28;20437;-67
2022/06/26 05:15:14;;;;;;;15.60;13.97;;;;;;;22.49;100.00;99413.28;5069715;28;20516;-67
2022/06/26 05:17:40;;;;;;;16.03;14.43;;;;;;;22.49;100.00;99414.16;5069743;28;20659;-67
2022/06/26 05:20:10;;;;;;;17.53;15.03;;;;;;;22.54;99.37;99411.38;5070540;28;20203;-67
2022/06/26 05:22:37;;;;;;;16.93;14.40;;;;;;;22.51;99.21;99420.19;5072553;28;21109;-67
2022/06/26 05:25:05;;;;;;;18.20;15.00;;;;;;;22.60;98.49;99426.88;5061683;28;20195;-68
2022/06/26 05:27:31;;;;;;;16.50;14.60;;;;;;;22.63;98.21;99424.16;5051246;28;20200;-68
2022/06/26 05:29:58;;;;;;;18.10;14.13;;;;;;;22.68;96.26;99420.53;5051280;28;20203;-68
2022/06/26 05:32:25;;;;;;;17.30;15.47;;;;;;;22.65;96.97;99425.84;5051382;28;20184;-68
2022/06/26 05:34:52;;;;;;;17.57;15.50;;;;;;;22.79;97.06;99422.78;5050929;28;20202;-68
2022/06/26 05:37:20;;;;;;;18.25;16.35;;;;;;;22.88;95.98;99425.09;5050390;28;20443;-68
2022/06/26 05:39:47;;;;;;;20.27;15.43;;;;;;;22.96;94.48;99428.28;5051106;28;20742;-67
2022/06/26 05:42:14;;;;;;;19.33;14.07;;;;;;;23.03;93.58;99431.53;5058868;28;20223;-67
2022/06/26 05:44:41;;;;;;;18.43;15.33;;;;;;;23.07;93.52;99443.63;5015718;28;1386537;-67
2022/06/26 05:47:08;;;;;;;18.87;13.63;;;;;;;23.13;92.97;99448.66;5070752;28;20199;-58
2022/06/26 05:49:35;;;;;;;15.47;13.87;;;;;;;23.21;92.64;99447.47;5071170;28;20950;-58
2022/06/26 05:52:02;;;;;;;17.20;14.17;;;;;;;23.29;92.75;99455.91;5071735;28;20921;-57
2022/06/26 05:54:30;;;;;;;17.67;13.03;;;;;;;23.44;92.50;99454.53;5051723;28;20918;-57
2022/06/26 05:56:57;;;;;;;15.27;13.67;;;;;;;23.53;92.87;99461.22;5051768;28;20207;-57
2022/06/26 05:59:23;;;;;;;13.63;11.90;;;;;;;23.60;90.33;99452.19;5051424;28;20199;-57
2022/06/26 06:01:51;;;;;;;13.87;12.40;;;;;;;23.62;90.41;99459.13;5051008;28;20220;-56
2022/06/26 06:04:17;;;;;;;11.83;10.70;;;;;;;23.76;89.18;99463.84;5051007;28;20188;-56
2022/06/26 06:06:44;;;;;;;13.80;11.70;;;;;;;23.85;88.67;99468.72;5051522;28;20556;-56
2022/06/26 06:09:11;;;;;;;16.47;11.50;;;;;;;24.10;86.95;99468.69;5051602;28;20602;-56
2022/06/26 06:11:40;;;;;;;13.00;11.47;;;;;;;24.04;86.77;99467.97;5071215;28;20217;-56
2022/06/26 06:14:07;;;;;;;12.97;11.33;;;;;;;24.09;88.30;99470.44;5069757;28;20189;-55
2022/06/26 06:16:34;;;;;;;15.90;12.00;;;;;;;24.11;87.74;99468.63;5070476;28;20203;-56
2022/06/26 06:19:00;;;;;;;13.65;11.73;;;;;;;24.18;87.22;99471.84;5070480;28;20442;-56
2022/06/26 06:21:27;;;;;;;14.90;11.53;;;;;;;24.33;86.65;99476.50;5070428;28;20195;-57
2022/06/26 06:23:54;;;;;;;17.20;11.43;;;;;;;24.49;86.06;99477.59;5070558;28;20199;-57
2022/06/26 06:26:21;;;;;;;12.80;11.53;;;;;;;24.63;85.99;99476.13;5070503;28;20662;-57
2022/06/26 06:28:49;;;;;;;13.23;11.82;;;;;;;24.71;87.01;99475.81;5070578;28;20450;-57
2022/06/26 06:31:16;;;;;;;13.53;10.07;;;;;;;24.82;83.99;99480.66;5070606;28;20207;-56
2022/06/26 06:33:43;;;;;;;14.50;11.00;;;;;;;24.94;82.60;99480.97;5070510;28;20219;-56
2022/06/26 06:36:10;;;;;;;12.57;11.30;;;;;;;25.02;82.53;99468.41;5070483;28;20196;-56
2022/06/26 06:38:37;;;;;;;15.73;11.73;;;;;;;25.13;84.06;99468.75;5070557;28;20191;-56
2022/06/26 06:41:04;;;;;;;12.50;9.73;;;;;;;25.31;82.78;99472.38;5070502;28;20191;-57
2022/06/26 06:43:31;;;;;;;10.30;8.73;;;;;;;25.34;80.31;99469.59;5070300;28;20227;-56
2022/06/26 06:45:59;;;;;;;12.83;9.53;;;;;;;25.53;80.02;99467.03;5068172;28;20191;-57
2022/06/26 06:48:26;;;;;;;17.50;11.30;;;;;;;25.70;80.20;99467.13;5065770;28;20191;-56
2022/06/26 06:50:53;;;;;;;14.33;9.57;;;;;;;25.72;78.83;99465.28;5070022;28;20196;-56
2022/06/26 06:53:21;;;;;;;15.03;9.70;;;;;;;25.76;78.52;99474.75;5065714;28;20195;-56
2022/06/26 06:55:48;;;;;;;12.93;8.83;;;;;;;25.61;78.66;99447.34;5070070;28;20214;-56
2022/06/26 06:58:15;;;;;;;13.10;8.47;;;;;;;25.64;79.19;99468.28;5065577;28;20671;-56
2022/06/26 07:00:42;;;;;;;15.15;9.90;;;;;;;25.66;80.88;99470.81;5049487;28;20811;-56
2022/06/26 07:03:10;;;;;;;15.37;9.03;;;;;;;25.74;79.48;99469.56;5050353;28;20220;-57
2022/06/26 07:05:37;;;;;;;13.33;7.90;;;;;;;25.63;76.94;99466.56;5050271;28;20203;-56
2022/06/26 07:08:04;;;;;;;11.07;7.50;;;;;;;25.53;76.59;99475.78;5049957;28;20575;-56
2022/06/26 07:10:31;;;;;;;10.00;7.80;;;;;;;25.48;77.15;99479.56;5049749;28;20635;-56
2022/06/26 07:13:00;;;;;;;10.67;7.90;;;;;;;25.45;77.79;99480.50;5049996;28;20544;-56
2022/06/26 07:15:27;;;;;;;10.52;8.68;;;;;;;25.44;77.73;99476.16;5049377;28;20447;-57
2022/06/26 07:17:54;;;;;;;12.00;8.13;;;;;;;25.67;77.67;99476.03;5054857;28;20198;-57
2022/06/26 07:20:22;;;;;;;9.87;8.67;;;;;;;25.70;77.12;99480.28;5063391;28;20192;-56
2022/06/26 07:22:50;;;;;;;15.53;9.23;;;;;;;25.73;76.31;99456.47;5069710;28;20211;-57
2022/06/26 07:25:17;;;;;;;14.10;10.10;;;;;;;25.81;76.84;99470.13;5068267;28;20434;-57
2022/06/26 07:27:45;;;;;;;16.33;11.10;;;;;;;25.92;76.94;99467.84;5067925;28;20203;-57
2022/06/26 07:30:12;;;;;;;12.67;9.63;;;;;;;25.84;75.80;99467.34;5066509;28;20188;-57
2022/06/26 07:32:39;;;;;;;14.03;9.43;;;;;;;25.96;74.79;99466.78;5069156;28;20179;-68
2022/06/26 07:35:07;;;;;;;10.77;9.60;;;;;;;26.13;75.40;99472.13;5069138;28;20183;-68
2022/06/26 07:37:35;;;;;;;11.17;8.07;;;;;;;26.34;73.29;99475.53;5069286;28;20211;-67
2022/06/26 07:40:02;;;;;;;10.40;8.23;;;;;;;26.55;72.59;99468.38;5066539;28;20195;-67
2022/06/26 07:42:29;;;;;;;9.40;7.50;;;;;;;26.44;71.52;99470.66;5067270;28;20211;-67
2022/06/26 07:44:55;;;;;;;9.97;7.27;;;;;;;26.53;70.45;99471.09;5079142;28;20312;-68
2022/06/26 07:47:23;;;;;;;10.35;6.63;;;;;;;26.79;68.17;99465.41;5073213;28;20628;-57
2022/06/26 07:49:49;;;;;;;5.95;4.88;;;;;;;27.10;64.38;99466.47;5068225;28;20642;-55
2022/06/26 07:52:17;;;;;;;9.50;5.50;;;;;;;27.23;63.59;99468.41;5067973;28;20198;-56
2022/06/26 07:54:45;;;;;;;9.20;5.10;;;;;;;27.07;63.49;99469.28;5069372;28;20192;-56
2022/06/26 07:57:12;;;;;;;8.95;4.78;;;;;;;27.04;64.39;99466.78;5069529;28;20188;-57
2022/06/26 07:59:39;;;;;;;8.80;5.38;;;;;;;27.37;63.27;99465.03;5068546;28;20503;-56
2022/06/26 08:02:06;;;;;;;8.82;4.60;;;;;;;27.52;61.99;99461.63;5058800;28;20227;-57
2022/06/26 08:04:33;;;;;;;9.83;5.50;;;;;;;27.71;61.93;99464.13;5049103;28;20219;-58
2022/06/26 08:07:00;;;;;;;9.90;5.85;;;;;;;27.88;62.31;99466.72;5048813;28;20184;-61
2022/06/26 08:09:27;;;;;;;10.60;5.30;;;;;;;27.94;61.19;99469.00;5049090;28;20200;-57
2022/06/26 08:11:56;;;;;;;6.80;4.10;;;;;;;27.82;59.43;99457.34;5049203;28;20231;-57
2022/06/26 08:14:23;;;;;;;7.47;4.65;;;;;;;28.07;58.81;99470.09;5067443;28;20206;-57
2022/06/26 08:16:50;;;;;;;6.25;4.43;;;;;;;27.90;59.89;99468.34;5068598;28;20233;-57
2022/06/26 08:19:16;;;;;;;4.80;3.60;;;;;;;27.94;57.95;99471.63;5066197;28;20176;-57
2022/06/26 08:22:00;;;;;;;3.50;3.20;;;;;;;27.86;56.42;99461.50;5068904;28;20176;-57
2022/06/26 08:24:27;;;;;;;9.07;3.90;;;;;;;28.07;54.08;99472.72;5067605;28;20188;-57
2022/06/26 08:26:56;;;;;;;6.90;3.53;;;;;;;28.22;55.03;99474.50;5068624;28;20196;-56
2022/06/26 08:29:23;;;;;;;6.43;4.53;;;;;;;28.25;56.27;99471.69;5062138;28;20183;-57
2022/06/26 08:31:50;;;;;;;4.90;3.70;;;;;;;28.19;56.25;99466.72;5067550;28;20456;-56
2022/06/26 08:34:17;;;;;;;5.68;4.25;;;;;;;28.19;55.60;99471.16;5068833;28;20198;-57
2022/06/26 08:36:44;;;;;;;5.90;4.20;;;;;;;28.22;54.56;99477.13;5068938;28;20666;-56
2022/06/26 08:39:11;;;;;;;8.10;4.22;;;;;;;28.33;55.12;99474.75;5072069;28;20301;-57
2022/06/26 08:41:40;;;;;;;6.82;4.38;;;;;;;28.46;53.69;99481.03;5072607;28;20358;-57
2022/06/26 08:44:10;;;;;;;6.57;3.25;;;;;;;28.46;54.02;99475.75;5072566;28;20714;-57
2022/06/26 08:46:38;;;;;;;4.50;4.00;;;;;;;28.38;54.99;99480.63;5072591;28;20203;-56
2022/06/26 08:49:10;;;;;;;8.13;3.75;;;;;;;28.33;55.84;99482.69;5071409;28;20200;-56
2022/06/26 08:51:38;;;;;;;9.50;4.85;;;;;;;28.24;57.09;99474.44;5072317;28;20623;-56
2022/06/26 08:54:06;;;;;;;9.43;4.72;;;;;;;28.24;56.50;99469.16;5071787;28;20431;-57
2022/06/26 08:56:33;;;;;;;6.85;4.07;;;;;;;28.24;54.62;99475.25;5071543;28;20192;-57
2022/06/26 08:59:01;;;;;;;6.72;4.43;;;;;;;28.56;54.12;99466.38;5070415;28;20245;-57
2022/06/26 09:01:29;;;;;;;7.45;4.65;;;;;;;28.59;53.53;99471.47;5070620;28;20192;-57
2022/06/26 09:03:56;;;;;;;8.60;4.10;;;;;;;28.45;54.79;99479.34;5070336;28;20424;-57
2022/06/26 09:06:23;;;;;;;7.28;5.13;;;;;;;28.51;55.80;99471.03;5071699;28;20539;-57
2022/06/26 09:08:50;;;;;;;7.07;5.07;;;;;;;28.65;55.63;99475.59;5069709;28;20218;-57
2022/06/26 09:11:18;;;;;;;9.60;5.55;;;;;;;28.60;56.14;99472.31;5070158;28;20187;-57
2022/06/26 09:13:46;;;;;;;9.65;6.45;;;;;;;28.86;55.40;99478.78;5070627;28;20188;-57
2022/06/26 09:16:15;;;;;;;7.88;5.10;;;;;;;28.86;55.76;99468.19;5070844;28;20119;-57
2022/06/26 09:18:44;;;;;;;5.65;4.80;;;;;;;29.05;54.90;99468.81;5071414;28;20206;-58
2022/06/26 09:21:12;;;;;;;7.60;4.70;;;;;;;28.84;53.79;99441.00;5071403;28;20639;-57
2022/06/26 09:23:52;;;;;;;8.25;4.25;;;;;;;29.04;52.09;99473.25;5071186;28;20255;-57
2022/06/26 09:26:19;;;;;;;6.03;4.40;;;;;;;28.97;51.36;99473.72;5071231;28;20453;-57
2022/06/26 09:28:46;;;;;;;6.35;3.63;;;;;;;28.97;52.21;99466.63;5071154;28;20571;-57
2022/06/26 09:31:13;;;;;;;8.50;4.10;;;;;;;29.01;51.96;99467.28;5071406;28;20202;-57
2022/06/26 09:33:41;;;;;;;4.97;3.88;;;;;;;28.83;52.06;99444.56;5071175;28;20187;-57
2022/06/26 09:36:15;;;;;;;5.28;4.43;;;;;;;29.16;51.37;99466.38;5071418;28;20665;-57
2022/06/26 09:38:49;;;;;;;6.32;3.60;;;;;;;28.93;51.77;99451.00;5070700;28;20441;-57
2022/06/26 09:41:17;;;;;;;7.85;3.70;;;;;;;29.31;51.12;99470.75;5071340;28;20624;-57
2022/06/26 09:43:45;;;;;;;7.28;4.00;;;;;;;29.33;51.85;99468.91;5070743;28;20622;-57
2022/06/26 09:46:14;;;;;;;4.88;4.47;;;;;;;29.46;51.85;99461.91;5070847;28;20195;-57
2022/06/26 09:48:43;;;;;;;6.50;4.20;;;;;;;29.51;51.74;99465.09;5069544;28;20441;-57
2022/06/26 09:51:13;;;;;;;5.40;4.25;;;;;;;29.72;51.23;99458.47;5070829;28;20195;-57
2022/06/26 09:53:40;;;;;;;10.80;4.05;;;;;;;29.66;51.60;99458.88;5071177;28;20195;-57
2022/06/26 09:56:08;;;;;;;10.30;4.57;;;;;;;29.48;50.42;99459.13;5070835;28;20198;-57
2022/06/26 09:58:35;;;;;;;5.68;3.65;;;;;;;29.55;51.18;99463.13;5070703;28;20187;-56
2022/06/26 10:06:36;;;;;;;5.30;3.55;;;;;;;29.57;47.91;99461.22;5070247;28;20316;-57
2022/06/26 10:09:05;;;;;;;4.10;3.50;;;;;;;29.57;47.76;99470.03;5070241;28;20236;-57
2022/06/26 10:11:34;;;;;;;5.53;3.65;;;;;;;29.49;47.15;99463.50;5069673;28;20444;-57
2022/06/26 10:14:06;;;;;;;5.65;3.80;;;;;;;29.44;46.91;99461.16;5069640;28;20192;-57
2022/06/26 10:16:57;;;;;;;9.05;3.88;;;;;;;29.37;47.95;99456.28;5069743;28;20270;-56
2022/06/26 10:19:32;;;;;;;5.00;4.18;;;;;;;29.35;48.48;99458.19;5066895;28;20199;-57
2022/06/26 10:22:01;;;;;;;13.07;4.22;;;;;;;29.25;47.43;99463.22;5069946;28;20558;-57
2022/06/26 10:24:28;;;;;;;4.85;4.20;;;;;;;28.92;48.01;99451.97;5068604;28;20950;-57
2022/06/26 10:26:56;;;;;;;4.70;3.70;;;;;;;28.77;48.51;99448.41;5069733;28;20796;-57
2022/06/26 10:29:33;;;;;;;5.65;4.20;;;;;;;28.96;48.79;99432.31;5069909;28;20243;-57
2022/06/26 10:32:00;;;;;;;6.00;4.43;;;;;;;29.27;47.04;99449.88;5069996;28;20191;-57
2022/06/26 10:34:27;;;;;;;4.65;3.92;;;;;;;29.39;46.85;99446.47;5069009;28;20437;-57
2022/06/26 10:37:00;;;;;;;5.50;4.00;;;;;;;29.54;46.91;99441.09;5069979;28;20191;-57
2022/06/26 10:39:52;;;;;;;4.80;4.25;;;;;;;29.60;47.83;99438.06;5069413;28;20209;-57
2022/06/26 10:45:09;;;;;;;5.63;3.28;;;;;;;29.18;44.26;99448.59;5069815;28;20241;-57
2022/06/26 10:47:47;;;;;;;5.65;5.15;;;;;;;29.24;46.57;99440.31;5068713;28;20521;-57
2022/06/26 10:50:32;;;;;;;5.20;4.10;;;;;;;29.47;47.16;99431.84;5070006;28;20195;-57
2022/06/26 10:53:15;;;;;;;5.88;4.25;;;;;;;29.50;47.97;99436.09;5069747;28;20260;-57
2022/06/26 10:55:44;;;;;;;5.93;4.70;;;;;;;29.62;48.85;99433.50;5069784;28;20191;-57
2022/06/26 10:58:19;;;;;;;5.55;4.85;;;;;;;29.38;49.47;99428.88;5070042;28;20179;-57
2022/06/26 11:00:46;;;;;;;7.00;5.63;;;;;;;29.21;53.69;99430.78;5069542;28;20685;-57
2022/06/26 11:03:14;;;;;;;7.60;6.07;;;;;;;29.14;54.31;99431.22;5070047;28;20318;-57
2022/06/26 11:05:54;;;;;;;7.20;5.40;;;;;;;29.17;55.61;99425.75;5069740;28;20278;-57
2022/06/26 11:08:27;;;;;;;6.47;5.78;;;;;;;29.21;55.40;99417.53;5069810;28;20191;-56
2022/06/26 11:10:58;;;;;;;9.13;5.80;;;;;;;29.28;54.17;99423.31;5069727;28;20203;-57
2022/06/26 11:13:25;;;;;;;9.13;5.15;;;;;;;29.24;55.45;99421.78;5069744;28;20571;-57
2022/06/26 11:15:52;;;;;;;8.02;5.78;;;;;;;28.90;56.88;99400.94;5069443;28;20195;-57
2022/06/26 11:18:19;;;;;;;7.60;5.68;;;;;;;28.80;57.91;99416.50;5069187;28;20399;-57
2022/06/26 11:20:47;;;;;;;8.90;6.13;;;;;;;28.85;58.12;99414.44;5069686;28;20199;-56
2022/06/26 11:23:20;;;;;;;7.18;5.70;;;;;;;28.92;58.51;99409.63;5069153;28;20587;-57
2022/06/26 11:25:51;;;;;;;6.25;5.65;;;;;;;28.95;57.96;99409.47;5069268;28;20192;-58
2022/06/26 11:28:18;;;;;;;6.32;5.72;;;;;;;28.92;55.77;99413.13;5069544;28;20191;-57
2022/06/26 11:30:47;;;;;;;9.00;5.90;;;;;;;28.89;56.81;99408.03;5069048;28;20196;-58
2022/06/26 11:33:14;;;;;;;8.15;5.65;;;;;;;28.77;56.47;99405.25;5068971;28;20569;-58
2022/06/26 11:35:41;;;;;;;7.95;5.20;;;;;;;28.80;54.63;99403.28;5069588;28;20222;-57
2022/06/26 11:38:16;;;;;;;6.97;5.57;;;;;;;28.80;54.68;99402.41;5069026;28;20195;-56
2022/06/26 11:40:44;;;;;;;6.45;5.78;;;;;;;29.00;55.71;99410.03;5069206;28;20209;-57
2022/06/26 11:43:14;;;;;;;12.55;6.13;;;;;;;28.66;56.79;99403.25;5068821;28;20207;-57